sensor_id;sensor_type;location;lat;lon;timestamp;P1;durP1;ratioP1;P2;durP2;ratioP2
8803;SDS011;4438;50.890;4.726;2024-01-30T00:02:11;7.40;;;6.67;;
8803;SDS011;4438;50.890;4.726;2024-01-30T00:04:37;8.73;;;6.47;;
8803;SDS011;4438;50.890;4.726;2024-01-30T00:07:03;7.37;;;5.87;;
8803;SDS011;4438;50.890;4.726;2024-01-30T00:09:29;8.00;;;6.00;;
8803;SDS011;4438;50.890;4.726;2024-01-30T00:11:56;7.10;;;6.10;;
8803;SDS011;4438;50.890;4.726;2024-01-30T00:14:22;7.00;;;6.10;;
8803;SDS011;4438;50.890;4.726;2024-01-30T00:16:48;6.37;;;5.50;;
8803;SDS011;4438;50.890;4.726;2024-01-30T00:19:14;6.83;;;5.53;;
8803;SDS011;4438;50.890;4.726;2024-01-30T00:21:40;6.13;;;5.53;;
8803;SDS011;4438;50.890;4.726;2024-01-30T00:24:06;6.90;;;5.60;;
8803;SDS011;4438;50.890;4.726;2024-01-30T00:26:32;6.90;;;6.17;;
8803;SDS011;4438;50.890;4.726;2024-01-30T00:28:59;6.23;;;5.37;;
8803;SDS011;4438;50.890;4.726;2024-01-30T00:31:25;7.43;;;6.07;;
8803;SDS011;4438;50.890;4.726;2024-01-30T00:33:51;6.93;;;5.73;;
8803;SDS011;4438;50.890;4.726;2024-01-30T00:36:17;7.13;;;5.83;;
8803;SDS011;4438;50.890;4.726;2024-01-30T00:38:43;6.67;;;6.00;;
8803;SDS011;4438;50.890;4.726;2024-01-30T00:41:09;7.23;;;6.07;;
8803;SDS011;4438;50.890;4.726;2024-01-30T00:43:36;7.10;;;5.83;;
8803;SDS011;4438;50.890;4.726;2024-01-30T00:46:02;7.77;;;5.90;;
8803;SDS011;4438;50.890;4.726;2024-01-30T00:48:28;6.10;;;5.50;;
8803;SDS011;4438;50.890;4.726;2024-01-30T00:50:54;8.57;;;5.87;;
8803;SDS011;4438;50.890;4.726;2024-01-30T00:53:20;5.93;;;5.33;;
8803;SDS011;4438;50.890;4.726;2024-01-30T00:55:46;7.07;;;5.63;;
8803;SDS011;4438;50.890;4.726;2024-01-30T00:58:13;6.50;;;5.80;;
8803;SDS011;4438;50.890;4.726;2024-01-30T01:00:39;6.80;;;6.10;;
8803;SDS011;4438;50.890;4.726;2024-01-30T01:03:05;6.20;;;5.60;;
8803;SDS011;4438;50.890;4.726;2024-01-30T01:05:31;6.43;;;5.73;;
8803;SDS011;4438;50.890;4.726;2024-01-30T01:07:57;6.70;;;6.00;;
8803;SDS011;4438;50.890;4.726;2024-01-30T01:10:23;6.97;;;5.80;;
8803;SDS011;4438;50.890;4.726;2024-01-30T01:12:49;7.33;;;5.67;;
8803;SDS011;4438;50.890;4.726;2024-01-30T01:15:16;6.23;;;5.50;;
8803;SDS011;4438;50.890;4.726;2024-01-30T01:17:42;5.70;;;5.10;;
8803;SDS011;4438;50.890;4.726;2024-01-30T01:20:08;5.50;;;5.00;;
8803;SDS011;4438;50.890;4.726;2024-01-30T01:22:35;6.30;;;5.70;;
8803;SDS011;4438;50.890;4.726;2024-01-30T01:25:04;6.00;;;5.30;;
8803;SDS011;4438;50.890;4.726;2024-01-30T01:27:33;5.97;;;5.37;;
8803;SDS011;4438;50.890;4.726;2024-01-30T01:30:03;6.53;;;5.40;;
8803;SDS011;4438;50.890;4.726;2024-01-30T01:32:31;5.60;;;5.10;;
8803;SDS011;4438;50.890;4.726;2024-01-30T01:34:57;6.87;;;5.93;;
8803;SDS011;4438;50.890;4.726;2024-01-30T01:37:23;5.37;;;4.87;;
8803;SDS011;4438;50.890;4.726;2024-01-30T01:39:51;8.73;;;5.60;;
8803;SDS011;4438;50.890;4.726;2024-01-30T01:42:18;6.57;;;5.27;;
8803;SDS011;4438;50.890;4.726;2024-01-30T01:44:44;6.43;;;5.13;;
8803;SDS011;4438;50.890;4.726;2024-01-30T01:47:10;6.27;;;5.20;;
8803;SDS011;4438;50.890;4.726;2024-01-30T01:49:36;6.30;;;5.70;;
8803;SDS011;4438;50.890;4.726;2024-01-30T01:52:03;6.53;;;5.37;;
8803;SDS011;4438;50.890;4.726;2024-01-30T01:54:29;6.47;;;4.87;;
8803;SDS011;4438;50.890;4.726;2024-01-30T01:56:56;6.23;;;5.10;;
8803;SDS011;4438;50.890;4.726;2024-01-30T01:59:22;5.97;;;5.30;;
8803;SDS011;4438;50.890;4.726;2024-01-30T02:01:49;5.97;;;5.30;;
8803;SDS011;4438;50.890;4.726;2024-01-30T02:04:16;5.93;;;5.27;;
8803;SDS011;4438;50.890;4.726;2024-01-30T02:06:43;6.33;;;5.00;;
8803;SDS011;4438;50.890;4.726;2024-01-30T02:09:09;6.23;;;5.17;;
8803;SDS011;4438;50.890;4.726;2024-01-30T02:11:35;7.60;;;5.00;;
8803;SDS011;4438;50.890;4.726;2024-01-30T02:14:02;6.47;;;5.43;;
8803;SDS011;4438;50.890;4.726;2024-01-30T02:16:29;6.03;;;5.43;;
8803;SDS011;4438;50.890;4.726;2024-01-30T02:18:55;5.10;;;4.60;;
8803;SDS011;4438;50.890;4.726;2024-01-30T02:21:21;6.03;;;5.43;;
8803;SDS011;4438;50.890;4.726;2024-01-30T02:23:47;5.77;;;5.27;;
8803;SDS011;4438;50.890;4.726;2024-01-30T02:26:14;6.77;;;5.00;;
8803;SDS011;4438;50.890;4.726;2024-01-30T02:28:40;6.87;;;5.20;;
8803;SDS011;4438;50.890;4.726;2024-01-30T02:31:07;6.07;;;5.20;;
8803;SDS011;4438;50.890;4.726;2024-01-30T02:33:33;5.80;;;5.20;;
8803;SDS011;4438;50.890;4.726;2024-01-30T02:35:59;5.87;;;5.17;;
8803;SDS011;4438;50.890;4.726;2024-01-30T02:38:26;5.83;;;5.20;;
8803;SDS011;4438;50.890;4.726;2024-01-30T02:40:53;5.70;;;5.17;;
8803;SDS011;4438;50.890;4.726;2024-01-30T02:43:20;5.77;;;5.27;;
8803;SDS011;4438;50.890;4.726;2024-01-30T02:45:46;6.13;;;5.40;;
8803;SDS011;4438;50.890;4.726;2024-01-30T02:48:12;5.47;;;4.80;;
8803;SDS011;4438;50.890;4.726;2024-01-30T02:50:38;5.27;;;4.70;;
8803;SDS011;4438;50.890;4.726;2024-01-30T02:53:04;6.40;;;5.23;;
8803;SDS011;4438;50.890;4.726;2024-01-30T02:55:30;5.50;;;4.90;;
8803;SDS011;4438;50.890;4.726;2024-01-30T02:57:56;6.53;;;5.13;;
8803;SDS011;4438;50.890;4.726;2024-01-30T03:00:23;6.80;;;5.47;;
8803;SDS011;4438;50.890;4.726;2024-01-30T03:02:49;7.50;;;5.50;;
8803;SDS011;4438;50.890;4.726;2024-01-30T03:05:15;7.67;;;5.13;;
8803;SDS011;4438;50.890;4.726;2024-01-30T03:07:41;7.73;;;5.97;;
8803;SDS011;4438;50.890;4.726;2024-01-30T03:10:07;8.33;;;6.03;;
8803;SDS011;4438;50.890;4.726;2024-01-30T03:12:34;6.73;;;5.50;;
8803;SDS011;4438;50.890;4.726;2024-01-30T03:15:00;7.40;;;6.30;;
8803;SDS011;4438;50.890;4.726;2024-01-30T03:17:26;7.53;;;5.93;;
8803;SDS011;4438;50.890;4.726;2024-01-30T03:19:52;6.97;;;6.00;;
8803;SDS011;4438;50.890;4.726;2024-01-30T03:22:18;7.27;;;5.60;;
8803;SDS011;4438;50.890;4.726;2024-01-30T03:24:44;7.33;;;5.40;;
8803;SDS011;4438;50.890;4.726;2024-01-30T03:27:10;7.83;;;5.97;;
8803;SDS011;4438;50.890;4.726;2024-01-30T03:29:36;7.63;;;6.13;;
8803;SDS011;4438;50.890;4.726;2024-01-30T03:32:02;7.07;;;5.70;;
8803;SDS011;4438;50.890;4.726;2024-01-30T03:34:29;7.47;;;5.57;;
8803;SDS011;4438;50.890;4.726;2024-01-30T03:36:55;8.27;;;6.10;;
8803;SDS011;4438;50.890;4.726;2024-01-30T03:39:21;6.50;;;5.03;;
8803;SDS011;4438;50.890;4.726;2024-01-30T03:41:47;7.53;;;5.73;;
8803;SDS011;4438;50.890;4.726;2024-01-30T03:44:13;6.93;;;5.30;;
8803;SDS011;4438;50.890;4.726;2024-01-30T03:46:39;7.77;;;5.80;;
8803;SDS011;4438;50.890;4.726;2024-01-30T03:49:05;7.57;;;5.30;;
8803;SDS011;4438;50.890;4.726;2024-01-30T03:51:31;6.73;;;5.60;;
8803;SDS011;4438;50.890;4.726;2024-01-30T03:53:57;6.77;;;5.33;;
8803;SDS011;4438;50.890;4.726;2024-01-30T03:56:23;6.97;;;5.73;;
8803;SDS011;4438;50.890;4.726;2024-01-30T03:58:50;6.60;;;5.50;;
8803;SDS011;4438;50.890;4.726;2024-01-30T04:01:16;6.20;;;5.20;;
8803;SDS011;4438;50.890;4.726;2024-01-30T04:03:43;6.33;;;5.27;;
8803;SDS011;4438;50.890;4.726;2024-01-30T04:06:09;6.67;;;5.37;;
8803;SDS011;4438;50.890;4.726;2024-01-30T04:08:36;8.00;;;6.00;;
8803;SDS011;4438;50.890;4.726;2024-01-30T04:11:03;6.80;;;5.70;;
8803;SDS011;4438;50.890;4.726;2024-01-30T04:13:31;8.60;;;5.97;;
8803;SDS011;4438;50.890;4.726;2024-01-30T04:15:58;9.17;;;6.03;;
8803;SDS011;4438;50.890;4.726;2024-01-30T04:18:25;8.33;;;5.57;;
8803;SDS011;4438;50.890;4.726;2024-01-30T04:20:51;6.53;;;5.80;;
8803;SDS011;4438;50.890;4.726;2024-01-30T04:23:17;6.00;;;5.40;;
8803;SDS011;4438;50.890;4.726;2024-01-30T04:25:43;6.77;;;5.60;;
8803;SDS011;4438;50.890;4.726;2024-01-30T04:28:09;7.27;;;5.50;;
8803;SDS011;4438;50.890;4.726;2024-01-30T04:30:37;7.17;;;5.80;;
8803;SDS011;4438;50.890;4.726;2024-01-30T04:33:03;7.70;;;5.70;;
8803;SDS011;4438;50.890;4.726;2024-01-30T04:35:29;7.67;;;5.83;;
8803;SDS011;4438;50.890;4.726;2024-01-30T04:37:55;6.73;;;5.63;;
8803;SDS011;4438;50.890;4.726;2024-01-30T04:40:21;6.03;;;5.43;;
8803;SDS011;4438;50.890;4.726;2024-01-30T04:42:48;7.63;;;5.70;;
8803;SDS011;4438;50.890;4.726;2024-01-30T04:45:14;6.73;;;5.57;;
8803;SDS011;4438;50.890;4.726;2024-01-30T04:47:40;8.50;;;5.83;;
8803;SDS011;4438;50.890;4.726;2024-01-30T04:50:06;7.17;;;5.47;;
8803;SDS011;4438;50.890;4.726;2024-01-30T04:52:33;7.90;;;5.50;;
8803;SDS011;4438;50.890;4.726;2024-01-30T04:54:59;6.70;;;5.53;;
8803;SDS011;4438;50.890;4.726;2024-01-30T04:57:25;7.57;;;5.50;;
8803;SDS011;4438;50.890;4.726;2024-01-30T04:59:52;6.80;;;6.10;;
8803;SDS011;4438;50.890;4.726;2024-01-30T05:02:18;8.57;;;6.13;;
8803;SDS011;4438;50.890;4.726;2024-01-30T05:04:44;9.77;;;6.10;;
8803;SDS011;4438;50.890;4.726;2024-01-30T05:07:10;6.57;;;5.63;;
8803;SDS011;4438;50.890;4.726;2024-01-30T05:09:36;6.80;;;6.10;;
8803;SDS011;4438;50.890;4.726;2024-01-30T05:12:02;7.67;;;6.03;;
8803;SDS011;4438;50.890;4.726;2024-01-30T05:14:28;6.47;;;5.60;;
8803;SDS011;4438;50.890;4.726;2024-01-30T05:16:54;8.73;;;5.47;;
8803;SDS011;4438;50.890;4.726;2024-01-30T05:19:20;7.70;;;5.60;;
8803;SDS011;4438;50.890;4.726;2024-01-30T05:21:48;7.30;;;5.70;;
8803;SDS011;4438;50.890;4.726;2024-01-30T05:24:14;6.53;;;5.93;;
8803;SDS011;4438;50.890;4.726;2024-01-30T05:26:40;7.27;;;5.70;;
8803;SDS011;4438;50.890;4.726;2024-01-30T05:29:06;7.53;;;5.77;;
8803;SDS011;4438;50.890;4.726;2024-01-30T05:31:33;6.60;;;6.00;;
8803;SDS011;4438;50.890;4.726;2024-01-30T05:33:59;6.33;;;5.30;;
8803;SDS011;4438;50.890;4.726;2024-01-30T05:36:25;7.27;;;5.80;;
8803;SDS011;4438;50.890;4.726;2024-01-30T05:38:52;6.47;;;5.77;;
8803;SDS011;4438;50.890;4.726;2024-01-30T05:41:18;7.87;;;5.93;;
8803;SDS011;4438;50.890;4.726;2024-01-30T05:43:44;6.73;;;5.63;;
8803;SDS011;4438;50.890;4.726;2024-01-30T05:46:10;6.93;;;5.97;;
8803;SDS011;4438;50.890;4.726;2024-01-30T05:48:36;6.83;;;5.83;;
8803;SDS011;4438;50.890;4.726;2024-01-30T05:51:02;6.20;;;5.57;;
8803;SDS011;4438;50.890;4.726;2024-01-30T05:53:29;7.10;;;5.47;;
8803;SDS011;4438;50.890;4.726;2024-01-30T05:55:55;7.13;;;5.53;;
8803;SDS011;4438;50.890;4.726;2024-01-30T05:58:21;6.13;;;5.53;;
8803;SDS011;4438;50.890;4.726;2024-01-30T06:00:47;8.17;;;5.97;;
8803;SDS011;4438;50.890;4.726;2024-01-30T06:03:13;6.83;;;6.03;;
8803;SDS011;4438;50.890;4.726;2024-01-30T06:05:39;7.60;;;6.20;;
8803;SDS011;4438;50.890;4.726;2024-01-30T06:08:05;6.33;;;5.53;;
8803;SDS011;4438;50.890;4.726;2024-01-30T06:10:31;6.53;;;5.83;;
8803;SDS011;4438;50.890;4.726;2024-01-30T06:12:57;6.13;;;5.53;;
8803;SDS011;4438;50.890;4.726;2024-01-30T06:15:24;7.17;;;5.80;;
8803;SDS011;4438;50.890;4.726;2024-01-30T06:17:51;7.47;;;5.83;;
8803;SDS011;4438;50.890;4.726;2024-01-30T06:20:17;6.70;;;6.00;;
8803;SDS011;4438;50.890;4.726;2024-01-30T06:22:43;7.80;;;6.00;;
8803;SDS011;4438;50.890;4.726;2024-01-30T06:25:09;7.50;;;6.00;;
8803;SDS011;4438;50.890;4.726;2024-01-30T06:27:37;6.40;;;5.53;;
8803;SDS011;4438;50.890;4.726;2024-01-30T06:30:03;8.80;;;6.50;;
8803;SDS011;4438;50.890;4.726;2024-01-30T06:32:30;6.90;;;6.00;;
8803;SDS011;4438;50.890;4.726;2024-01-30T06:34:59;6.70;;;5.97;;
8803;SDS011;4438;50.890;4.726;2024-01-30T06:37:25;6.97;;;6.27;;
8803;SDS011;4438;50.890;4.726;2024-01-30T06:39:52;7.90;;;6.03;;
8803;SDS011;4438;50.890;4.726;2024-01-30T06:42:18;7.77;;;6.07;;
8803;SDS011;4438;50.890;4.726;2024-01-30T06:44:44;7.70;;;6.30;;
8803;SDS011;4438;50.890;4.726;2024-01-30T06:47:10;7.97;;;5.87;;
8803;SDS011;4438;50.890;4.726;2024-01-30T06:49:36;10.03;;;6.53;;
8803;SDS011;4438;50.890;4.726;2024-01-30T06:52:07;8.20;;;6.70;;
8803;SDS011;4438;50.890;4.726;2024-01-30T06:54:33;9.13;;;6.83;;
8803;SDS011;4438;50.890;4.726;2024-01-30T06:56:59;8.70;;;6.30;;
8803;SDS011;4438;50.890;4.726;2024-01-30T06:59:25;8.80;;;6.97;;
8803;SDS011;4438;50.890;4.726;2024-01-30T07:01:52;9.97;;;7.07;;
8803;SDS011;4438;50.890;4.726;2024-01-30T07:04:18;8.03;;;6.67;;
8803;SDS011;4438;50.890;4.726;2024-01-30T07:06:44;8.93;;;6.90;;
8803;SDS011;4438;50.890;4.726;2024-01-30T07:09:10;10.93;;;6.80;;
8803;SDS011;4438;50.890;4.726;2024-01-30T07:11:36;10.60;;;7.10;;
8803;SDS011;4438;50.890;4.726;2024-01-30T07:14:02;11.10;;;7.67;;
8803;SDS011;4438;50.890;4.726;2024-01-30T07:16:31;10.13;;;7.93;;
8803;SDS011;4438;50.890;4.726;2024-01-30T07:18:57;11.60;;;7.67;;
8803;SDS011;4438;50.890;4.726;2024-01-30T07:21:23;10.00;;;7.40;;
8803;SDS011;4438;50.890;4.726;2024-01-30T07:23:56;9.70;;;7.57;;
8803;SDS011;4438;50.890;4.726;2024-01-30T07:26:22;10.20;;;7.27;;
8803;SDS011;4438;50.890;4.726;2024-01-30T07:28:48;12.27;;;7.53;;
8803;SDS011;4438;50.890;4.726;2024-01-30T07:31:15;10.93;;;7.37;;
8803;SDS011;4438;50.890;4.726;2024-01-30T07:33:41;11.27;;;7.60;;
8803;SDS011;4438;50.890;4.726;2024-01-30T07:36:07;12.43;;;7.87;;
8803;SDS011;4438;50.890;4.726;2024-01-30T07:38:33;9.87;;;7.40;;
8803;SDS011;4438;50.890;4.726;2024-01-30T07:41:00;9.87;;;7.27;;
8803;SDS011;4438;50.890;4.726;2024-01-30T07:43:26;8.70;;;6.70;;
8803;SDS011;4438;50.890;4.726;2024-01-30T07:45:52;8.63;;;7.07;;
8803;SDS011;4438;50.890;4.726;2024-01-30T07:48:18;9.33;;;7.27;;
8803;SDS011;4438;50.890;4.726;2024-01-30T07:50:44;8.87;;;7.10;;
8803;SDS011;4438;50.890;4.726;2024-01-30T07:53:10;8.97;;;6.87;;
8803;SDS011;4438;50.890;4.726;2024-01-30T07:55:36;9.30;;;7.33;;
8803;SDS011;4438;50.890;4.726;2024-01-30T07:58:02;9.53;;;7.73;;
8803;SDS011;4438;50.890;4.726;2024-01-30T08:00:29;10.00;;;7.27;;
8803;SDS011;4438;50.890;4.726;2024-01-30T08:02:56;10.83;;;7.43;;
8803;SDS011;4438;50.890;4.726;2024-01-30T08:05:22;10.23;;;7.67;;
8803;SDS011;4438;50.890;4.726;2024-01-30T08:07:49;8.93;;;6.97;;
8803;SDS011;4438;50.890;4.726;2024-01-30T08:10:15;7.67;;;6.60;;
8803;SDS011;4438;50.890;4.726;2024-01-30T08:12:43;8.67;;;6.83;;
8803;SDS011;4438;50.890;4.726;2024-01-30T08:15:09;9.23;;;6.77;;
8803;SDS011;4438;50.890;4.726;2024-01-30T08:17:35;9.83;;;6.90;;
8803;SDS011;4438;50.890;4.726;2024-01-30T08:20:01;8.60;;;7.33;;
8803;SDS011;4438;50.890;4.726;2024-01-30T08:22:29;11.73;;;6.90;;
8803;SDS011;4438;50.890;4.726;2024-01-30T08:24:55;8.53;;;6.63;;
8803;SDS011;4438;50.890;4.726;2024-01-30T08:27:21;9.80;;;7.00;;
8803;SDS011;4438;50.890;4.726;2024-01-30T08:29:48;7.90;;;6.80;;
8803;SDS011;4438;50.890;4.726;2024-01-30T08:32:15;7.10;;;6.23;;
8803;SDS011;4438;50.890;4.726;2024-01-30T08:34:41;8.90;;;6.97;;
8803;SDS011;4438;50.890;4.726;2024-01-30T08:37:07;11.23;;;6.93;;
8803;SDS011;4438;50.890;4.726;2024-01-30T08:39:33;10.10;;;7.03;;
8803;SDS011;4438;50.890;4.726;2024-01-30T08:41:59;9.57;;;6.70;;
8803;SDS011;4438;50.890;4.726;2024-01-30T08:44:26;10.93;;;7.17;;
8803;SDS011;4438;50.890;4.726;2024-01-30T08:46:52;9.67;;;6.53;;
8803;SDS011;4438;50.890;4.726;2024-01-30T08:49:19;10.03;;;6.10;;
8803;SDS011;4438;50.890;4.726;2024-01-30T08:51:46;8.47;;;6.30;;
8803;SDS011;4438;50.890;4.726;2024-01-30T08:54:12;8.07;;;6.50;;
8803;SDS011;4438;50.890;4.726;2024-01-30T08:56:38;9.83;;;6.83;;
8803;SDS011;4438;50.890;4.726;2024-01-30T08:59:04;8.17;;;7.00;;
8803;SDS011;4438;50.890;4.726;2024-01-30T09:01:30;8.77;;;7.00;;
8803;SDS011;4438;50.890;4.726;2024-01-30T09:03:56;9.20;;;6.43;;
8803;SDS011;4438;50.890;4.726;2024-01-30T09:06:23;8.93;;;7.40;;
8803;SDS011;4438;50.890;4.726;2024-01-30T09:08:53;8.87;;;6.50;;
8803;SDS011;4438;50.890;4.726;2024-01-30T09:11:19;7.97;;;6.57;;
8803;SDS011;4438;50.890;4.726;2024-01-30T09:13:45;8.77;;;6.80;;
8803;SDS011;4438;50.890;4.726;2024-01-30T09:16:11;7.90;;;6.70;;
8803;SDS011;4438;50.890;4.726;2024-01-30T09:18:37;9.63;;;6.83;;
8803;SDS011;4438;50.890;4.726;2024-01-30T09:21:04;9.57;;;6.97;;
8803;SDS011;4438;50.890;4.726;2024-01-30T09:23:30;9.30;;;6.87;;
8803;SDS011;4438;50.890;4.726;2024-01-30T09:25:56;8.13;;;6.97;;
8803;SDS011;4438;50.890;4.726;2024-01-30T09:28:22;8.43;;;7.00;;
8803;SDS011;4438;50.890;4.726;2024-01-30T09:30:48;8.70;;;7.10;;
8803;SDS011;4438;50.890;4.726;2024-01-30T09:33:14;9.07;;;6.97;;
8803;SDS011;4438;50.890;4.726;2024-01-30T09:35:40;8.37;;;6.73;;
8803;SDS011;4438;50.890;4.726;2024-01-30T09:38:06;8.97;;;6.63;;
8803;SDS011;4438;50.890;4.726;2024-01-30T09:40:33;9.60;;;6.87;;
8803;SDS011;4438;50.890;4.726;2024-01-30T09:42:59;9.57;;;7.27;;
8803;SDS011;4438;50.890;4.726;2024-01-30T09:45:25;7.90;;;6.93;;
8803;SDS011;4438;50.890;4.726;2024-01-30T09:47:52;8.93;;;7.00;;
8803;SDS011;4438;50.890;4.726;2024-01-30T09:50:18;10.30;;;7.03;;
8803;SDS011;4438;50.890;4.726;2024-01-30T09:52:45;10.50;;;7.10;;
8803;SDS011;4438;50.890;4.726;2024-01-30T09:55:12;10.50;;;7.27;;
8803;SDS011;4438;50.890;4.726;2024-01-30T09:57:38;11.27;;;7.50;;
8803;SDS011;4438;50.890;4.726;2024-01-30T10:00:05;9.97;;;7.00;;
8803;SDS011;4438;50.890;4.726;2024-01-30T10:02:35;9.47;;;7.33;;
8803;SDS011;4438;50.890;4.726;2024-01-30T10:05:01;12.07;;;8.03;;
8803;SDS011;4438;50.890;4.726;2024-01-30T10:07:27;9.63;;;7.07;;
8803;SDS011;4438;50.890;4.726;2024-01-30T10:09:54;9.23;;;7.00;;
8803;SDS011;4438;50.890;4.726;2024-01-30T10:12:21;8.33;;;7.37;;
8803;SDS011;4438;50.890;4.726;2024-01-30T10:14:48;9.97;;;7.30;;
8803;SDS011;4438;50.890;4.726;2024-01-30T10:17:14;9.93;;;7.23;;
8803;SDS011;4438;50.890;4.726;2024-01-30T10:19:40;11.00;;;7.87;;
8803;SDS011;4438;50.890;4.726;2024-01-30T10:22:07;9.17;;;8.00;;
8803;SDS011;4438;50.890;4.726;2024-01-30T10:24:33;10.33;;;8.17;;
8803;SDS011;4438;50.890;4.726;2024-01-30T10:26:59;11.50;;;7.87;;
8803;SDS011;4438;50.890;4.726;2024-01-30T10:29:26;10.77;;;7.87;;
8803;SDS011;4438;50.890;4.726;2024-01-30T10:32:02;10.93;;;7.83;;
8803;SDS011;4438;50.890;4.726;2024-01-30T10:34:29;12.27;;;8.57;;
8803;SDS011;4438;50.890;4.726;2024-01-30T10:37:07;11.40;;;8.27;;
8803;SDS011;4438;50.890;4.726;2024-01-30T10:39:41;13.93;;;8.60;;
8803;SDS011;4438;50.890;4.726;2024-01-30T10:42:11;10.63;;;8.30;;
8803;SDS011;4438;50.890;4.726;2024-01-30T10:44:48;11.33;;;8.60;;
8803;SDS011;4438;50.890;4.726;2024-01-30T10:47:17;11.87;;;9.00;;
8803;SDS011;4438;50.890;4.726;2024-01-30T10:49:44;14.10;;;9.47;;
8803;SDS011;4438;50.890;4.726;2024-01-30T10:52:11;13.87;;;10.40;;
8803;SDS011;4438;50.890;4.726;2024-01-30T10:54:39;12.50;;;9.63;;
8803;SDS011;4438;50.890;4.726;2024-01-30T10:57:06;13.83;;;10.43;;
8803;SDS011;4438;50.890;4.726;2024-01-30T10:59:32;13.87;;;10.20;;
8803;SDS011;4438;50.890;4.726;2024-01-30T11:01:58;11.50;;;9.20;;
8803;SDS011;4438;50.890;4.726;2024-01-30T11:04:25;13.00;;;9.60;;
8803;SDS011;4438;50.890;4.726;2024-01-30T11:06:51;10.30;;;9.03;;
8803;SDS011;4438;50.890;4.726;2024-01-30T11:09:19;11.17;;;9.27;;
8803;SDS011;4438;50.890;4.726;2024-01-30T11:11:49;12.13;;;9.10;;
8803;SDS011;4438;50.890;4.726;2024-01-30T11:14:15;8.50;;;7.27;;
8803;SDS011;4438;50.890;4.726;2024-01-30T11:16:41;12.17;;;7.57;;
8803;SDS011;4438;50.890;4.726;2024-01-30T11:19:10;8.47;;;7.20;;
8803;SDS011;4438;50.890;4.726;2024-01-30T11:21:43;13.57;;;7.83;;
8803;SDS011;4438;50.890;4.726;2024-01-30T11:24:09;9.07;;;6.90;;
8803;SDS011;4438;50.890;4.726;2024-01-30T11:26:36;8.30;;;7.30;;
8803;SDS011;4438;50.890;4.726;2024-01-30T11:29:07;9.57;;;6.97;;
8803;SDS011;4438;50.890;4.726;2024-01-30T11:31:34;11.40;;;6.80;;
8803;SDS011;4438;50.890;4.726;2024-01-30T11:34:00;9.63;;;6.80;;
8803;SDS011;4438;50.890;4.726;2024-01-30T11:36:27;9.40;;;6.77;;
8803;SDS011;4438;50.890;4.726;2024-01-30T11:38:54;8.93;;;5.73;;
8803;SDS011;4438;50.890;4.726;2024-01-30T11:41:20;8.00;;;5.67;;
8803;SDS011;4438;50.890;4.726;2024-01-30T11:43:52;7.03;;;5.40;;
8803;SDS011;4438;50.890;4.726;2024-01-30T11:46:19;9.40;;;5.40;;
8803;SDS011;4438;50.890;4.726;2024-01-30T11:48:45;8.73;;;5.40;;
8803;SDS011;4438;50.890;4.726;2024-01-30T11:51:12;8.30;;;5.73;;
8803;SDS011;4438;50.890;4.726;2024-01-30T11:53:39;7.10;;;4.87;;
8803;SDS011;4438;50.890;4.726;2024-01-30T11:56:08;7.73;;;4.57;;
8803;SDS011;4438;50.890;4.726;2024-01-30T11:58:34;6.50;;;4.07;;
8803;SDS011;4438;50.890;4.726;2024-01-30T12:01:00;8.07;;;3.90;;
8803;SDS011;4438;50.890;4.726;2024-01-30T12:03:26;4.67;;;3.77;;
8803;SDS011;4438;50.890;4.726;2024-01-30T12:05:56;5.07;;;3.23;;
8803;SDS011;4438;50.890;4.726;2024-01-30T12:08:23;4.50;;;3.20;;
8803;SDS011;4438;50.890;4.726;2024-01-30T12:10:59;6.53;;;3.37;;
8803;SDS011;4438;50.890;4.726;2024-01-30T12:13:27;5.30;;;3.07;;
8803;SDS011;4438;50.890;4.726;2024-01-30T12:15:53;5.20;;;2.93;;
8803;SDS011;4438;50.890;4.726;2024-01-30T12:18:20;4.10;;;2.33;;
8803;SDS011;4438;50.890;4.726;2024-01-30T12:20:56;5.50;;;2.80;;
8803;SDS011;4438;50.890;4.726;2024-01-30T12:23:23;3.97;;;1.93;;
8803;SDS011;4438;50.890;4.726;2024-01-30T12:25:51;3.10;;;1.70;;
8803;SDS011;4438;50.890;4.726;2024-01-30T12:28:17;2.73;;;1.80;;
8803;SDS011;4438;50.890;4.726;2024-01-30T12:30:43;3.07;;;1.93;;
8803;SDS011;4438;50.890;4.726;2024-01-30T12:33:09;2.27;;;1.40;;
8803;SDS011;4438;50.890;4.726;2024-01-30T12:35:35;2.93;;;1.40;;
8803;SDS011;4438;50.890;4.726;2024-01-30T12:38:01;1.90;;;1.23;;
8803;SDS011;4438;50.890;4.726;2024-01-30T12:40:27;1.57;;;1.20;;
8803;SDS011;4438;50.890;4.726;2024-01-30T12:42:54;2.10;;;1.13;;
8803;SDS011;4438;50.890;4.726;2024-01-30T12:45:20;3.30;;;1.30;;
8803;SDS011;4438;50.890;4.726;2024-01-30T12:47:47;1.40;;;1.20;;
8803;SDS011;4438;50.890;4.726;2024-01-30T12:50:13;2.70;;;1.53;;
8803;SDS011;4438;50.890;4.726;2024-01-30T12:52:41;2.43;;;1.47;;
8803;SDS011;4438;50.890;4.726;2024-01-30T12:55:07;2.10;;;1.30;;
8803;SDS011;4438;50.890;4.726;2024-01-30T12:57:33;2.47;;;1.33;;
8803;SDS011;4438;50.890;4.726;2024-01-30T12:59:59;2.53;;;1.23;;
8803;SDS011;4438;50.890;4.726;2024-01-30T13:02:25;1.90;;;1.20;;
8803;SDS011;4438;50.890;4.726;2024-01-30T13:04:55;3.03;;;1.20;;
8803;SDS011;4438;50.890;4.726;2024-01-30T13:07:21;2.37;;;1.20;;
8803;SDS011;4438;50.890;4.726;2024-01-30T13:09:47;2.57;;;1.40;;
8803;SDS011;4438;50.890;4.726;2024-01-30T13:12:13;1.77;;;1.20;;
8803;SDS011;4438;50.890;4.726;2024-01-30T13:14:39;2.60;;;1.20;;
8803;SDS011;4438;50.890;4.726;2024-01-30T13:17:05;3.27;;;1.40;;
8803;SDS011;4438;50.890;4.726;2024-01-30T13:19:31;1.60;;;1.27;;
8803;SDS011;4438;50.890;4.726;2024-01-30T13:21:57;2.00;;;1.13;;
8803;SDS011;4438;50.890;4.726;2024-01-30T13:24:23;3.50;;;1.27;;
8803;SDS011;4438;50.890;4.726;2024-01-30T13:26:50;1.80;;;1.00;;
8803;SDS011;4438;50.890;4.726;2024-01-30T13:29:16;1.57;;;1.23;;
8803;SDS011;4438;50.890;4.726;2024-01-30T13:31:42;2.63;;;1.40;;
8803;SDS011;4438;50.890;4.726;2024-01-30T13:34:09;2.17;;;1.30;;
8803;SDS011;4438;50.890;4.726;2024-01-30T13:36:35;3.93;;;1.30;;
8803;SDS011;4438;50.890;4.726;2024-01-30T13:39:01;2.77;;;1.43;;
8803;SDS011;4438;50.890;4.726;2024-01-30T13:41:27;2.97;;;1.30;;
8803;SDS011;4438;50.890;4.726;2024-01-30T13:43:55;2.67;;;0.90;;
8803;SDS011;4438;50.890;4.726;2024-01-30T13:46:21;3.83;;;1.40;;
8803;SDS011;4438;50.890;4.726;2024-01-30T13:48:47;2.73;;;1.40;;
8803;SDS011;4438;50.890;4.726;2024-01-30T13:51:13;2.50;;;1.60;;
8803;SDS011;4438;50.890;4.726;2024-01-30T13:53:41;3.73;;;1.37;;
8803;SDS011;4438;50.890;4.726;2024-01-30T13:56:07;3.30;;;1.37;;
8803;SDS011;4438;50.890;4.726;2024-01-30T13:58:34;4.60;;;1.47;;
8803;SDS011;4438;50.890;4.726;2024-01-30T14:01:01;3.87;;;1.53;;
8803;SDS011;4438;50.890;4.726;2024-01-30T14:03:27;5.27;;;1.53;;
8803;SDS011;4438;50.890;4.726;2024-01-30T14:05:54;4.20;;;1.40;;
8803;SDS011;4438;50.890;4.726;2024-01-30T14:08:20;5.23;;;1.80;;
8803;SDS011;4438;50.890;4.726;2024-01-30T14:10:49;5.80;;;1.97;;
8803;SDS011;4438;50.890;4.726;2024-01-30T14:13:15;2.80;;;1.67;;
8803;SDS011;4438;50.890;4.726;2024-01-30T14:15:41;4.13;;;1.70;;
8803;SDS011;4438;50.890;4.726;2024-01-30T14:18:07;2.57;;;1.43;;
8803;SDS011;4438;50.890;4.726;2024-01-30T14:20:34;1.97;;;1.20;;
8803;SDS011;4438;50.890;4.726;2024-01-30T14:23:00;2.57;;;1.60;;
8803;SDS011;4438;50.890;4.726;2024-01-30T14:25:26;3.13;;;1.60;;
8803;SDS011;4438;50.890;4.726;2024-01-30T14:27:52;4.23;;;1.47;;
8803;SDS011;4438;50.890;4.726;2024-01-30T14:30:18;4.00;;;1.57;;
8803;SDS011;4438;50.890;4.726;2024-01-30T14:32:44;3.27;;;1.57;;
8803;SDS011;4438;50.890;4.726;2024-01-30T14:35:11;4.10;;;1.30;;
8803;SDS011;4438;50.890;4.726;2024-01-30T14:37:37;3.03;;;1.70;;
8803;SDS011;4438;50.890;4.726;2024-01-30T14:40:04;4.27;;;1.67;;
8803;SDS011;4438;50.890;4.726;2024-01-30T14:42:32;4.43;;;1.60;;
8803;SDS011;4438;50.890;4.726;2024-01-30T14:44:58;2.60;;;1.40;;
8803;SDS011;4438;50.890;4.726;2024-01-30T14:47:25;3.10;;;1.30;;
8803;SDS011;4438;50.890;4.726;2024-01-30T14:49:51;4.10;;;1.50;;
8803;SDS011;4438;50.890;4.726;2024-01-30T14:52:17;4.57;;;1.50;;
8803;SDS011;4438;50.890;4.726;2024-01-30T14:54:43;2.33;;;1.30;;
8803;SDS011;4438;50.890;4.726;2024-01-30T14:57:09;3.70;;;1.37;;
8803;SDS011;4438;50.890;4.726;2024-01-30T14:59:36;3.27;;;1.70;;
8803;SDS011;4438;50.890;4.726;2024-01-30T15:02:02;2.03;;;1.40;;
8803;SDS011;4438;50.890;4.726;2024-01-30T15:04:28;2.60;;;1.50;;
8803;SDS011;4438;50.890;4.726;2024-01-30T15:06:54;2.80;;;1.30;;
8803;SDS011;4438;50.890;4.726;2024-01-30T15:09:20;3.10;;;1.43;;